createdAt,value
2019-04-07T00:03:16.219Z,12.40
2019-04-07T00:10:01.816Z,12.23
2019-04-07T00:12:40.274Z,12.23
2019-04-07T00:15:20.977Z,12.14
2019-04-07T00:18:08.217Z,12.09
2019-04-07T00:20:49.471Z,12.04
2019-04-07T00:23:37.144Z,12.06
2019-04-07T00:26:17.136Z,11.98
2019-04-07T00:29:04.820Z,11.93
2019-04-07T00:31:47.294Z,11.89
2019-04-07T00:34:29.244Z,11.92
2019-04-07T00:37:17.118Z,11.91
2019-04-07T00:39:59.378Z,11.93
2019-04-07T00:42:46.580Z,11.92
2019-04-07T00:45:27.222Z,11.90
2019-04-07T00:48:14.450Z,11.89
2019-04-07T00:50:56.510Z,11.90
2019-04-07T00:53:46.300Z,11.95
2019-04-07T00:56:28.670Z,11.94
2019-04-07T00:59:35.395Z,11.75
2019-04-07T01:02:16.934Z,11.71
2019-04-07T01:07:57.515Z,11.69
2019-04-07T01:10:38.362Z,11.57
2019-04-07T01:13:26.219Z,11.54
2019-04-07T01:16:07.493Z,11.57
2019-04-07T01:18:54.715Z,11.58
2019-04-07T01:21:34.615Z,11.59
2019-04-07T01:24:22.000Z,11.56
2019-04-07T01:27:03.977Z,11.60
2019-04-07T01:29:51.693Z,11.50
2019-04-07T01:32:33.801Z,11.50
2019-04-07T01:35:21.335Z,11.45
2019-04-07T01:38:02.877Z,11.40
2019-04-07T01:41:10.728Z,11.43
2019-04-07T01:44:13.573Z,11.46
2019-04-07T01:47:21.034Z,11.43
2019-04-07T01:50:26.389Z,11.41
2019-04-07T01:53:28.095Z,11.37
2019-04-07T01:57:21.545Z,11.30
2019-04-07T02:00:21.573Z,11.27
2019-04-07T02:03:48.413Z,11.31
2019-04-07T02:06:34.928Z,11.40
2019-04-07T02:09:40.219Z,11.29
2019-04-07T02:12:47.823Z,11.17
2019-04-07T02:15:54.862Z,11.11
2019-04-07T02:19:02.016Z,11.08
2019-04-07T02:25:19.892Z,11.18
2019-04-07T02:28:27.637Z,11.17
2019-04-07T02:34:07.235Z,11.05
2019-04-07T02:37:14.250Z,10.99
2019-04-07T02:40:03.851Z,10.94
2019-04-07T02:43:31.094Z,10.79
2019-04-07T02:46:31.413Z,10.76
2019-04-07T02:49:26.263Z,10.66
2019-04-07T02:52:14.722Z,10.69
2019-04-07T02:55:06.173Z,10.56
2019-04-07T02:58:01.503Z,10.66
2019-04-07T03:00:50.667Z,10.66
2019-04-07T03:03:58.278Z,10.69
2019-04-07T03:06:58.784Z,10.63
2019-04-07T03:10:05.799Z,10.64
2019-04-07T03:13:07.232Z,10.48
2019-04-07T03:16:04.465Z,10.39
2019-04-07T03:19:01.961Z,10.31
2019-04-07T03:21:50.097Z,10.29
2019-04-07T03:24:45.955Z,10.17
2019-04-07T03:27:51.610Z,10.16
2019-04-07T03:31:01.829Z,10.19
2019-04-07T03:33:54.428Z,10.17
2019-04-07T03:37:19.379Z,10.11
2019-04-07T03:39:52.485Z,10.09
2019-04-07T03:42:53.564Z,10.13
2019-04-07T03:49:18.621Z,10.14
2019-04-07T03:55:49.297Z,10.16
2019-04-07T03:58:50.769Z,10.11
2019-04-07T04:01:57.930Z,10.12
2019-04-07T04:05:05.349Z,10.06
2019-04-07T04:14:16.522Z,9.91
2019-04-07T04:20:50.492Z,9.82
2019-04-07T04:23:31.765Z,9.78
2019-04-07T04:26:18.949Z,9.80
2019-04-07T04:41:46.694Z,9.84
2019-04-07T04:55:51.392Z,9.82
2019-04-07T04:58:38.509Z,9.88
2019-04-07T05:07:26.756Z,10.01
2019-04-07T05:10:08.093Z,10.01
2019-04-07T05:12:56.076Z,10.02
2019-04-07T05:15:37.909Z,10.06
2019-04-07T05:18:25.609Z,10.10
2019-04-07T05:21:08.531Z,10.12
2019-04-07T05:23:56.118Z,10.14
2019-04-07T05:26:36.578Z,10.15
2019-04-07T05:29:23.801Z,10.25
2019-04-07T05:32:11.109Z,10.35
2019-04-07T05:34:52.100Z,10.45
2019-04-07T05:37:39.425Z,10.51
2019-04-07T05:40:20.123Z,10.37
2019-04-07T05:43:07.339Z,10.43
2019-04-07T05:45:48.821Z,10.56
2019-04-07T05:48:36.045Z,10.65
2019-04-07T05:51:16.443Z,10.64
2019-04-07T05:57:10.685Z,10.89
2019-04-07T05:59:57.984Z,11.04
2019-04-07T06:06:28.870Z,11.19
2019-04-07T06:19:05.399Z,11.73
2019-04-07T06:21:50.582Z,11.94
2019-04-07T06:24:33.342Z,12.11
2019-04-07T06:27:19.888Z,12.04
2019-04-07T06:30:00.969Z,11.99
2019-04-07T06:32:48.464Z,11.93
2019-04-07T06:35:28.749Z,11.90
2019-04-07T06:38:16.631Z,11.89
2019-04-07T06:41:06.276Z,12.08
2019-04-07T06:43:46.385Z,12.01
2019-04-07T06:49:56.408Z,12.39
2019-04-07T06:53:05.453Z,12.75
2019-04-07T06:56:11.081Z,12.94
2019-04-07T06:59:18.539Z,13.05
2019-04-07T07:08:41.746Z,13.54
2019-04-07T07:11:34.359Z,13.78
2019-04-07T07:17:48.703Z,14.07
2019-04-07T07:23:52.887Z,14.54
2019-04-07T07:26:40.286Z,14.62
2019-04-07T07:29:21.377Z,14.46
2019-04-07T07:32:08.620Z,14.62
2019-04-07T07:34:49.812Z,14.95
2019-04-07T07:37:37.765Z,15.23
2019-04-07T07:40:18.880Z,15.31
2019-04-07T07:43:06.546Z,15.52
2019-04-07T07:45:48.703Z,15.74
2019-04-07T07:48:36.697Z,15.85
2019-04-07T07:51:17.989Z,15.91
2019-04-07T07:54:05.622Z,15.86
2019-04-07T07:56:50.224Z,16.12
2019-04-07T07:59:38.437Z,16.56
2019-04-07T08:02:19.951Z,16.82
2019-04-07T08:05:08.183Z,17.12
2019-04-07T08:08:14.978Z,17.02
2019-04-07T08:11:01.287Z,17.35
2019-04-07T08:13:46.992Z,17.46
2019-04-07T08:16:31.206Z,18.08
2019-04-07T08:19:16.820Z,19.08
2019-04-07T08:21:59.612Z,20.21
2019-04-07T08:24:49.638Z,21.85
2019-04-07T08:27:31.196Z,24.43
2019-04-07T08:30:18.894Z,26.22
2019-04-07T08:33:00.438Z,27.75
2019-04-07T08:35:42.549Z,29.08
2019-04-07T08:38:29.946Z,30.61
2019-04-07T08:41:14.298Z,32.04
2019-04-07T08:44:00.756Z,33.08
2019-04-07T08:46:43.142Z,33.92
2019-04-07T08:49:32.702Z,34.92
2019-04-07T08:52:12.483Z,35.43
2019-04-07T08:55:00.043Z,35.23
2019-04-07T08:57:41.278Z,35.63
2019-04-07T09:03:17.183Z,37.21
2019-04-07T09:06:04.735Z,38.64
2019-04-07T09:08:46.869Z,38.55
2019-04-07T09:12:31.327Z,38.80
2019-04-07T09:15:17.805Z,36.18
2019-04-07T09:21:35.488Z,37.89
2019-04-07T09:24:33.612Z,37.77
2019-04-07T09:27:23.272Z,37.18
2019-04-07T09:30:09.971Z,39.51
2019-04-07T09:33:03.744Z,41.31
2019-04-07T09:36:11.195Z,40.55
2019-04-07T09:39:09.052Z,39.67
2019-04-07T09:42:16.963Z,38.85
2019-04-07T09:45:07.433Z,40.32
2019-04-07T09:48:13.800Z,41.48
2019-04-07T09:51:13.831Z,41.03
2019-04-07T09:54:22.530Z,40.54
2019-04-07T09:57:22.546Z,41.19
2019-04-07T10:03:30.492Z,41.40
2019-04-07T10:06:30.761Z,41.93
2019-04-07T10:09:30.534Z,42.42
2019-04-07T10:12:56.624Z,41.23
2019-04-07T10:15:45.047Z,41.36
2019-04-07T10:18:49.239Z,43.18
2019-04-07T10:25:00.866Z,43.60
2019-04-07T10:28:03.033Z,40.51
2019-04-07T10:30:52.929Z,41.86
2019-04-07T10:34:01.878Z,43.11
2019-04-07T10:36:52.002Z,42.30
2019-04-07T10:40:36.596Z,43.50
2019-04-07T10:43:39.313Z,43.20
2019-04-07T10:46:44.942Z,43.81
2019-04-07T10:50:02.406Z,43.35
2019-04-07T10:52:58.593Z,41.34
2019-04-07T10:55:52.963Z,39.91
2019-04-07T10:58:59.785Z,36.69
2019-04-07T11:02:00.222Z,38.20
2019-04-07T11:05:07.138Z,38.42
2019-04-07T11:11:18.067Z,37.49
2019-04-07T11:14:18.476Z,37.13
2019-04-07T11:17:27.648Z,36.21
2019-04-07T11:20:14.914Z,36.19
2019-04-07T11:23:16.761Z,35.19
2019-04-07T11:26:29.906Z,37.58
2019-04-07T11:29:20.789Z,39.18
2019-04-07T11:32:21.496Z,39.40
2019-04-07T11:35:15.131Z,36.69
2019-04-07T11:41:47.174Z,39.11
2019-04-07T11:48:17.596Z,41.55
2019-04-07T11:54:33.821Z,41.76
2019-04-07T11:57:24.060Z,42.18
2019-04-07T12:03:45.380Z,39.60
2019-04-07T12:06:53.709Z,41.51
2019-04-07T12:12:32.513Z,41.77
2019-04-07T12:15:45.186Z,42.08
2019-04-07T12:18:37.165Z,38.06
2019-04-07T12:21:38.532Z,37.98
2019-04-07T12:24:33.764Z,39.48
2019-04-07T12:27:42.993Z,39.42
2019-04-07T12:30:48.883Z,37.51
2019-04-07T12:33:52.784Z,38.32
2019-04-07T12:37:04.372Z,36.17
2019-04-07T12:40:09.284Z,36.92
2019-04-07T12:43:13.189Z,38.05
2019-04-07T12:46:19.455Z,37.24
2019-04-07T12:49:17.361Z,36.88
2019-04-07T12:52:28.105Z,38.33
2019-04-07T12:55:28.484Z,38.73
2019-04-07T12:58:31.248Z,39.78
2019-04-07T13:01:38.203Z,39.46
2019-04-07T13:07:41.558Z,42.00
2019-04-07T13:10:49.338Z,42.78
2019-04-07T13:13:49.237Z,42.31
2019-04-07T13:17:36.592Z,39.68
2019-04-07T13:20:36.538Z,38.26
2019-04-07T13:23:29.786Z,38.59
2019-04-07T13:26:17.582Z,39.44
2019-04-07T13:29:24.451Z,40.43
2019-04-07T13:32:18.769Z,36.61
2019-04-07T13:35:26.547Z,32.25
2019-04-07T13:41:44.487Z,35.27
2019-04-07T13:44:46.815Z,36.84
2019-04-07T13:47:44.708Z,34.74
2019-04-07T13:50:50.251Z,32.55
2019-04-07T13:53:50.150Z,31.91
2019-04-07T13:56:56.934Z,29.48
2019-04-07T13:59:57.791Z,29.19
2019-04-07T14:03:05.878Z,32.68
2019-04-07T14:06:06.875Z,34.14
2019-04-07T14:09:13.757Z,31.29
2019-04-07T14:12:14.315Z,28.36
2019-04-07T14:18:12.343Z,28.95
2019-04-07T14:24:23.098Z,28.48
2019-04-07T14:27:29.823Z,26.72
2019-04-07T14:30:38.192Z,25.79
2019-04-07T14:33:43.457Z,24.41
2019-04-07T14:42:54.936Z,27.66
2019-04-07T14:45:48.680Z,26.21
2019-04-07T14:48:49.128Z,25.14
2019-04-07T14:51:56.029Z,24.86
2019-04-07T14:54:58.597Z,24.65
2019-04-07T14:58:04.594Z,24.34
2019-04-07T15:01:14.276Z,23.65
2019-04-07T15:04:01.090Z,22.91
2019-04-07T15:06:41.142Z,22.45
2019-04-07T15:09:48.078Z,22.28
2019-04-07T15:12:42.527Z,22.43
2019-04-07T15:15:23.731Z,22.59
2019-04-07T15:18:11.650Z,22.73
2019-04-07T15:20:53.499Z,22.52
2019-04-07T15:23:43.707Z,22.32
2019-04-07T15:26:23.551Z,22.20
2019-04-07T15:29:11.010Z,21.38
2019-04-07T15:31:52.298Z,21.28
2019-04-07T15:34:42.248Z,21.66
2019-04-07T15:37:24.133Z,21.83
2019-04-07T15:40:12.079Z,22.02
2019-04-07T15:43:19.171Z,21.97
2019-04-07T15:46:00.064Z,22.01
2019-04-07T15:48:48.314Z,21.83
2019-04-07T15:51:34.158Z,21.73
2019-04-07T15:54:22.389Z,21.63
2019-04-07T15:57:02.596Z,21.46
2019-04-07T15:59:50.163Z,21.38
2019-04-07T16:03:00.126Z,21.09
2019-04-07T16:12:17.288Z,21.12
2019-04-07T16:18:12.713Z,20.91
2019-04-07T16:21:02.800Z,20.73
2019-04-07T16:23:40.639Z,20.70
2019-04-07T16:26:30.199Z,20.73
2019-04-07T16:29:15.481Z,20.55
2019-04-07T16:32:01.933Z,20.71
2019-04-07T16:34:44.840Z,20.49
2019-04-07T16:37:32.208Z,20.52
2019-04-07T16:40:13.082Z,20.49
2019-04-07T16:43:11.679Z,20.42
2019-04-07T16:45:44.960Z,20.39
2019-04-07T16:48:34.017Z,20.28
2019-04-07T16:51:13.918Z,20.11
2019-04-07T16:54:01.501Z,20.00
2019-04-07T16:56:44.132Z,19.97
2019-04-07T16:59:31.702Z,19.89
2019-04-07T17:02:15.594Z,19.71
2019-04-07T17:05:03.052Z,19.61
2019-04-07T17:07:48.412Z,19.54
2019-04-07T17:10:35.698Z,19.54
2019-04-07T17:16:26.994Z,19.51
2019-04-07T17:19:15.079Z,19.32
2019-04-07T17:28:13.604Z,19.04
2019-04-07T17:34:19.108Z,18.92
2019-04-07T17:37:07.256Z,18.79
2019-04-07T17:40:13.032Z,18.68
2019-04-07T17:49:32.936Z,18.36
2019-04-07T17:52:35.830Z,18.24
2019-04-07T17:55:41.002Z,18.10
2019-04-07T17:58:47.870Z,17.92
2019-04-07T18:01:48.415Z,17.90
2019-04-07T18:04:55.435Z,17.81
2019-04-07T18:08:01.816Z,17.72
2019-04-07T18:11:04.277Z,17.73
2019-04-07T18:14:04.581Z,17.61
2019-04-07T18:17:11.444Z,17.51
2019-04-07T18:20:21.455Z,17.44
2019-04-07T18:23:27.753Z,17.38
2019-04-07T18:26:27.417Z,17.32
2019-04-07T18:29:28.755Z,17.15
2019-04-07T18:32:26.406Z,16.95
2019-04-07T18:35:33.330Z,16.92
2019-04-07T18:38:33.154Z,16.81
2019-04-07T18:41:40.390Z,16.69
2019-04-07T18:44:41.366Z,16.67
2019-04-07T18:47:29.982Z,16.61
2019-04-07T18:50:38.611Z,16.58
2019-04-07T18:56:55.206Z,16.44
2019-04-07T19:00:01.299Z,16.33
2019-04-07T19:07:07.761Z,16.25
2019-04-07T19:10:20.812Z,16.14
2019-04-07T19:16:12.588Z,16.07
2019-04-07T19:19:19.314Z,16.04
2019-04-07T19:22:21.399Z,16.09
2019-04-07T19:25:21.626Z,15.99
2019-04-07T19:28:21.175Z,15.96
2019-04-07T19:31:23.620Z,15.89
2019-04-07T19:34:31.774Z,15.80
2019-04-07T19:37:22.874Z,15.78
2019-04-07T19:40:25.530Z,15.76
2019-04-07T19:43:22.115Z,15.71
2019-04-07T19:46:20.258Z,15.67
2019-04-07T19:49:51.301Z,15.57
2019-04-07T19:52:49.890Z,15.52
2019-04-07T19:55:59.474Z,15.46
2019-04-07T19:59:09.722Z,15.44
2019-04-07T20:02:01.799Z,15.39
2019-04-07T20:05:08.489Z,15.44
2019-04-07T20:08:08.408Z,15.41
2019-04-07T20:11:16.006Z,15.38
2019-04-07T20:14:17.116Z,15.31
2019-04-07T20:17:08.384Z,15.28
2019-04-07T20:20:16.270Z,15.30
2019-04-07T20:23:22.974Z,15.29
2019-04-07T20:29:54.058Z,15.17
2019-04-07T20:33:40.083Z,15.18
2019-04-07T20:42:51.839Z,15.36
2019-04-07T20:45:55.882Z,15.24
2019-04-07T20:48:45.374Z,15.29
2019-04-07T20:51:54.512Z,15.20
2019-04-07T20:55:03.779Z,15.16
2019-04-07T20:58:16.067Z,15.25
2019-04-07T21:01:16.639Z,15.19
2019-04-07T21:07:23.522Z,15.05
2019-04-07T21:10:19.641Z,15.00
2019-04-07T21:13:26.467Z,14.97
2019-04-07T21:16:30.026Z,15.11
2019-04-07T21:19:38.653Z,15.06
2019-04-07T21:22:33.461Z,14.94
2019-04-07T21:25:31.640Z,14.87
2019-04-07T21:28:36.837Z,14.87
2019-04-07T21:31:36.645Z,14.85
2019-04-07T21:34:43.672Z,14.84
2019-04-07T21:43:51.289Z,14.60
2019-04-07T21:46:58.114Z,14.47
2019-04-07T21:53:30.597Z,14.44
2019-04-07T21:56:34.807Z,14.46
2019-04-07T22:05:59.363Z,14.24
2019-04-07T22:08:45.429Z,14.17
2019-04-07T22:11:32.973Z,14.14
2019-04-07T22:14:13.110Z,14.25
2019-04-07T22:17:02.555Z,14.15
2019-04-07T22:19:45.432Z,14.11
2019-04-07T22:22:31.277Z,14.07
2019-04-07T22:25:11.839Z,14.09
2019-04-07T22:27:59.187Z,14.05
2019-04-07T22:30:43.264Z,14.02
2019-04-07T22:33:48.112Z,14.08
2019-04-07T22:36:29.397Z,14.10
2019-04-07T22:39:16.789Z,13.99
2019-04-07T22:45:27.490Z,13.95
2019-04-07T22:48:12.176Z,13.91
2019-04-07T22:50:57.079Z,13.93
2019-04-07T22:53:37.132Z,13.94
2019-04-07T22:59:34.271Z,13.95
2019-04-07T23:02:15.987Z,13.97
2019-04-07T23:04:56.198Z,13.92
2019-04-07T23:07:43.819Z,13.85
2019-04-07T23:10:31.681Z,13.82
2019-04-07T23:13:13.293Z,13.82
2019-04-07T23:16:06.713Z,13.75
2019-04-07T23:18:43.312Z,13.74
2019-04-07T23:21:23.556Z,13.67
2019-04-07T23:24:10.982Z,13.61
2019-04-07T23:26:51.273Z,13.58
2019-04-07T23:29:38.758Z,13.52
2019-04-07T23:32:21.857Z,13.56
2019-04-07T23:35:08.422Z,13.52
2019-04-07T23:37:48.872Z,13.50
2019-04-07T23:40:36.127Z,13.56
2019-04-07T23:43:17.417Z,13.53
2019-04-07T23:46:05.144Z,13.50
2019-04-07T23:48:45.936Z,13.48
2019-04-07T23:51:33.182Z,13.38
2019-04-07T23:54:14.415Z,13.36
2019-04-07T23:57:01.761Z,13.33
2019-04-07T23:59:43.059Z,13.27
